West Branch, Iowa
Current Conditions -  °F | °C
As of 3:52 AM on Monday 22 Dec 2014 (Local Time) from KIOW Reporting Station
Overcast Overcast  
Wind Chill: 30°   Ceiling: 6000
Heat Index: 36°   Visibility: 7mi
Dew Point: 33°   Wind: 8mph
Humidity: 89%   Direction: 130°SE
Pressure: 29.81"   Gusts: NA
Location:  41.67°N, 91.35°W
Report Text: KIOW 220952Z AUTO 13007KT 7SM SCT047 OVC060 02/01 A2981 RMK AO2 SLP099 T00220006
Loading
Personal Weather Stations






























Interactive Weather Map New forecast layout! Learn more

10-Day Weather Forecast

Advertisements
Track Severe Weather on mobile